sensor_id;sensor_type;location;lat;lon;timestamp;temperature;humidity
44513;DHT22;30219;50.588;9.504;2023-05-21T00:00:40;13.00;99.90
44513;DHT22;30219;50.588;9.504;2023-05-21T00:03:06;13.10;99.90
44513;DHT22;30219;50.588;9.504;2023-05-21T00:05:38;13.10;99.90
44513;DHT22;30219;50.588;9.504;2023-05-21T00:08:04;13.00;99.90
44513;DHT22;30219;50.588;9.504;2023-05-21T00:10:30;13.00;99.90
44513;DHT22;30219;50.588;9.504;2023-05-21T00:12:55;12.90;99.90
44513;DHT22;30219;50.588;9.504;2023-05-21T00:15:21;12.90;99.90
44513;DHT22;30219;50.588;9.504;2023-05-21T00:17:46;12.90;99.90
44513;DHT22;30219;50.588;9.504;2023-05-21T00:20:12;12.90;99.90
44513;DHT22;30219;50.588;9.504;2023-05-21T00:22:37;12.90;99.90
44513;DHT22;30219;50.588;9.504;2023-05-21T00:25:04;13.00;99.90
44513;DHT22;30219;50.588;9.504;2023-05-21T00:27:30;13.00;99.90
44513;DHT22;30219;50.588;9.504;2023-05-21T00:29:56;12.90;99.90
44513;DHT22;30219;50.588;9.504;2023-05-21T00:32:21;12.90;99.90
44513;DHT22;30219;50.588;9.504;2023-05-21T00:34:47;12.90;99.90
44513;DHT22;30219;50.588;9.504;2023-05-21T00:37:12;12.90;99.90
44513;DHT22;30219;50.588;9.504;2023-05-21T00:39:39;12.90;99.90
44513;DHT22;30219;50.588;9.504;2023-05-21T00:42:05;12.90;99.90
44513;DHT22;30219;50.588;9.504;2023-05-21T00:44:30;12.80;99.90
44513;DHT22;30219;50.588;9.504;2023-05-21T00:46:59;12.80;99.90
44513;DHT22;30219;50.588;9.504;2023-05-21T00:49:26;12.80;99.90
44513;DHT22;30219;50.588;9.504;2023-05-21T00:51:52;12.80;99.90
44513;DHT22;30219;50.588;9.504;2023-05-21T00:54:19;12.70;99.90
44513;DHT22;30219;50.588;9.504;2023-05-21T00:56:44;12.70;99.90
44513;DHT22;30219;50.588;9.504;2023-05-21T00:59:10;12.70;99.90
44513;DHT22;30219;50.588;9.504;2023-05-21T01:01:36;12.70;99.90
44513;DHT22;30219;50.588;9.504;2023-05-21T01:04:01;12.70;99.90
44513;DHT22;30219;50.588;9.504;2023-05-21T01:06:27;12.60;99.90
44513;DHT22;30219;50.588;9.504;2023-05-21T01:08:53;12.70;99.90
44513;DHT22;30219;50.588;9.504;2023-05-21T01:11:20;12.70;99.90
44513;DHT22;30219;50.588;9.504;2023-05-21T01:13:48;12.70;99.90
44513;DHT22;30219;50.588;9.504;2023-05-21T01:16:14;12.60;99.90
44513;DHT22;30219;50.588;9.504;2023-05-21T01:18:41;12.60;99.90
44513;DHT22;30219;50.588;9.504;2023-05-21T01:21:09;12.60;99.90
44513;DHT22;30219;50.588;9.504;2023-05-21T01:23:34;12.60;99.90
44513;DHT22;30219;50.588;9.504;2023-05-21T01:26:00;12.50;99.90
44513;DHT22;30219;50.588;9.504;2023-05-21T01:28:25;12.50;99.90
44513;DHT22;30219;50.588;9.504;2023-05-21T01:30:51;12.40;99.90
44513;DHT22;30219;50.588;9.504;2023-05-21T01:35:43;12.40;99.90
44513;DHT22;30219;50.588;9.504;2023-05-21T01:38:19;12.40;99.90
44513;DHT22;30219;50.588;9.504;2023-05-21T01:41:00;12.50;99.90
44513;DHT22;30219;50.588;9.504;2023-05-21T01:43:36;12.40;99.90
44513;DHT22;30219;50.588;9.504;2023-05-21T01:46:02;12.50;99.90
44513;DHT22;30219;50.588;9.504;2023-05-21T01:48:29;12.40;99.90
44513;DHT22;30219;50.588;9.504;2023-05-21T01:50:56;12.30;99.90
44513;DHT22;30219;50.588;9.504;2023-05-21T01:53:22;12.30;99.90
44513;DHT22;30219;50.588;9.504;2023-05-21T01:55:47;12.20;99.90
44513;DHT22;30219;50.588;9.504;2023-05-21T01:58:13;12.20;99.90
44513;DHT22;30219;50.588;9.504;2023-05-21T02:00:40;12.30;99.90
44513;DHT22;30219;50.588;9.504;2023-05-21T02:03:05;12.30;99.90
44513;DHT22;30219;50.588;9.504;2023-05-21T02:05:30;12.30;99.90
44513;DHT22;30219;50.588;9.504;2023-05-21T02:07:56;12.30;99.90
44513;DHT22;30219;50.588;9.504;2023-05-21T02:10:24;12.30;99.90
44513;DHT22;30219;50.588;9.504;2023-05-21T02:12:49;12.40;99.90
44513;DHT22;30219;50.588;9.504;2023-05-21T02:15:15;12.30;99.90
44513;DHT22;30219;50.588;9.504;2023-05-21T02:17:42;12.30;99.90
44513;DHT22;30219;50.588;9.504;2023-05-21T02:20:08;12.40;99.90
44513;DHT22;30219;50.588;9.504;2023-05-21T02:22:40;12.40;99.90
44513;DHT22;30219;50.588;9.504;2023-05-21T02:25:06;12.40;99.90
44513;DHT22;30219;50.588;9.504;2023-05-21T02:27:33;12.50;99.90
44513;DHT22;30219;50.588;9.504;2023-05-21T02:30:09;12.40;99.90
44513;DHT22;30219;50.588;9.504;2023-05-21T02:32:35;12.20;99.90
44513;DHT22;30219;50.588;9.504;2023-05-21T02:35:01;12.10;99.90
44513;DHT22;30219;50.588;9.504;2023-05-21T02:37:28;12.10;99.90
44513;DHT22;30219;50.588;9.504;2023-05-21T02:39:53;12.10;99.90
44513;DHT22;30219;50.588;9.504;2023-05-21T02:42:20;12.10;99.90
44513;DHT22;30219;50.588;9.504;2023-05-21T02:44:45;12.20;99.90
44513;DHT22;30219;50.588;9.504;2023-05-21T02:47:11;12.20;99.90
44513;DHT22;30219;50.588;9.504;2023-05-21T02:49:36;12.10;99.90
44513;DHT22;30219;50.588;9.504;2023-05-21T02:52:02;12.20;99.90
44513;DHT22;30219;50.588;9.504;2023-05-21T02:54:28;12.20;99.90
44513;DHT22;30219;50.588;9.504;2023-05-21T02:56:53;12.20;99.90
44513;DHT22;30219;50.588;9.504;2023-05-21T02:59:19;12.20;99.90
44513;DHT22;30219;50.588;9.504;2023-05-21T03:01:44;12.30;99.90
44513;DHT22;30219;50.588;9.504;2023-05-21T03:04:10;12.30;99.90
44513;DHT22;30219;50.588;9.504;2023-05-21T03:06:35;12.30;99.90
44513;DHT22;30219;50.588;9.504;2023-05-21T03:09:01;12.30;99.90
44513;DHT22;30219;50.588;9.504;2023-05-21T03:11:27;12.30;99.90
44513;DHT22;30219;50.588;9.504;2023-05-21T03:13:52;12.30;99.90
44513;DHT22;30219;50.588;9.504;2023-05-21T03:16:18;12.30;99.90
44513;DHT22;30219;50.588;9.504;2023-05-21T03:18:43;12.40;99.90
44513;DHT22;30219;50.588;9.504;2023-05-21T03:21:09;12.40;99.90
44513;DHT22;30219;50.588;9.504;2023-05-21T03:23:37;12.30;99.90
44513;DHT22;30219;50.588;9.504;2023-05-21T03:26:03;12.30;99.90
44513;DHT22;30219;50.588;9.504;2023-05-21T03:28:29;12.30;99.90
44513;DHT22;30219;50.588;9.504;2023-05-21T03:30:54;12.30;99.90
44513;DHT22;30219;50.588;9.504;2023-05-21T03:33:20;12.20;99.90
44513;DHT22;30219;50.588;9.504;2023-05-21T03:35:46;12.20;99.90
44513;DHT22;30219;50.588;9.504;2023-05-21T03:38:11;12.20;99.90
44513;DHT22;30219;50.588;9.504;2023-05-21T03:40:37;12.20;99.90
44513;DHT22;30219;50.588;9.504;2023-05-21T03:43:02;12.20;99.90
44513;DHT22;30219;50.588;9.504;2023-05-21T03:45:27;12.20;99.90
44513;DHT22;30219;50.588;9.504;2023-05-21T03:47:53;12.20;99.90
44513;DHT22;30219;50.588;9.504;2023-05-21T03:50:18;12.20;99.90
44513;DHT22;30219;50.588;9.504;2023-05-21T03:52:44;12.20;99.90
44513;DHT22;30219;50.588;9.504;2023-05-21T03:55:09;12.20;99.90
44513;DHT22;30219;50.588;9.504;2023-05-21T03:57:35;12.20;99.90
44513;DHT22;30219;50.588;9.504;2023-05-21T04:00:01;12.20;99.90
44513;DHT22;30219;50.588;9.504;2023-05-21T04:02:27;12.20;99.90
44513;DHT22;30219;50.588;9.504;2023-05-21T04:04:52;12.10;99.90
44513;DHT22;30219;50.588;9.504;2023-05-21T04:07:18;12.20;99.90
44513;DHT22;30219;50.588;9.504;2023-05-21T04:09:43;12.20;99.90
44513;DHT22;30219;50.588;9.504;2023-05-21T04:12:09;12.20;99.90
44513;DHT22;30219;50.588;9.504;2023-05-21T04:14:35;12.20;99.90
44513;DHT22;30219;50.588;9.504;2023-05-21T04:17:01;12.20;99.90
44513;DHT22;30219;50.588;9.504;2023-05-21T04:19:28;12.20;99.90
44513;DHT22;30219;50.588;9.504;2023-05-21T04:21:54;12.30;99.90
44513;DHT22;30219;50.588;9.504;2023-05-21T04:24:20;12.30;99.90
44513;DHT22;30219;50.588;9.504;2023-05-21T04:26:46;12.30;99.90
44513;DHT22;30219;50.588;9.504;2023-05-21T04:29:12;12.40;99.90
44513;DHT22;30219;50.588;9.504;2023-05-21T04:31:37;12.40;99.90
44513;DHT22;30219;50.588;9.504;2023-05-21T04:34:03;12.50;99.90
44513;DHT22;30219;50.588;9.504;2023-05-21T04:36:29;12.50;99.90
44513;DHT22;30219;50.588;9.504;2023-05-21T04:38:54;12.60;99.90
44513;DHT22;30219;50.588;9.504;2023-05-21T04:41:20;12.70;99.90
44513;DHT22;30219;50.588;9.504;2023-05-21T04:43:45;12.70;99.90
44513;DHT22;30219;50.588;9.504;2023-05-21T04:46:11;12.70;99.90
44513;DHT22;30219;50.588;9.504;2023-05-21T04:48:36;12.70;99.90
44513;DHT22;30219;50.588;9.504;2023-05-21T04:51:02;12.80;99.90
44513;DHT22;30219;50.588;9.504;2023-05-21T04:53:30;12.90;99.90
44513;DHT22;30219;50.588;9.504;2023-05-21T04:55:55;13.00;99.90
44513;DHT22;30219;50.588;9.504;2023-05-21T04:58:23;13.10;99.90
44513;DHT22;30219;50.588;9.504;2023-05-21T05:00:50;13.20;99.90
44513;DHT22;30219;50.588;9.504;2023-05-21T05:03:17;13.20;99.90
44513;DHT22;30219;50.588;9.504;2023-05-21T05:05:43;13.30;99.90
44513;DHT22;30219;50.588;9.504;2023-05-21T05:08:08;13.40;99.90
44513;DHT22;30219;50.588;9.504;2023-05-21T05:10:34;13.40;99.90
44513;DHT22;30219;50.588;9.504;2023-05-21T05:15:27;13.60;99.90
44513;DHT22;30219;50.588;9.504;2023-05-21T05:17:52;13.70;99.90
44513;DHT22;30219;50.588;9.504;2023-05-21T05:20:18;13.80;99.90
44513;DHT22;30219;50.588;9.504;2023-05-21T05:22:44;13.80;99.90
44513;DHT22;30219;50.588;9.504;2023-05-21T05:25:09;14.00;99.90
44513;DHT22;30219;50.588;9.504;2023-05-21T05:27:35;14.00;99.90
44513;DHT22;30219;50.588;9.504;2023-05-21T05:30:00;14.00;99.90
44513;DHT22;30219;50.588;9.504;2023-05-21T05:32:26;14.10;99.90
44513;DHT22;30219;50.588;9.504;2023-05-21T05:34:51;14.10;99.90
44513;DHT22;30219;50.588;9.504;2023-05-21T05:37:20;14.20;99.90
44513;DHT22;30219;50.588;9.504;2023-05-21T05:39:45;14.30;99.90
44513;DHT22;30219;50.588;9.504;2023-05-21T05:42:11;14.40;99.90
44513;DHT22;30219;50.588;9.504;2023-05-21T05:44:36;14.40;99.90
44513;DHT22;30219;50.588;9.504;2023-05-21T05:47:01;14.50;99.90
44513;DHT22;30219;50.588;9.504;2023-05-21T05:49:27;14.60;99.90
44513;DHT22;30219;50.588;9.504;2023-05-21T05:51:52;14.70;99.90
44513;DHT22;30219;50.588;9.504;2023-05-21T05:54:18;14.70;99.90
44513;DHT22;30219;50.588;9.504;2023-05-21T05:56:43;14.80;99.90
44513;DHT22;30219;50.588;9.504;2023-05-21T05:59:09;14.90;99.90
44513;DHT22;30219;50.588;9.504;2023-05-21T06:01:34;15.00;99.90
44513;DHT22;30219;50.588;9.504;2023-05-21T06:04:00;15.10;99.90
44513;DHT22;30219;50.588;9.504;2023-05-21T06:06:25;15.20;99.90
44513;DHT22;30219;50.588;9.504;2023-05-21T06:08:50;15.30;99.90
44513;DHT22;30219;50.588;9.504;2023-05-21T06:11:16;15.40;99.90
44513;DHT22;30219;50.588;9.504;2023-05-21T06:13:43;15.50;99.90
44513;DHT22;30219;50.588;9.504;2023-05-21T06:16:08;15.60;99.90
44513;DHT22;30219;50.588;9.504;2023-05-21T06:18:34;15.80;99.90
44513;DHT22;30219;50.588;9.504;2023-05-21T06:21:00;15.80;99.90
44513;DHT22;30219;50.588;9.504;2023-05-21T06:23:25;16.00;99.90
44513;DHT22;30219;50.588;9.504;2023-05-21T06:25:51;16.20;99.90
44513;DHT22;30219;50.588;9.504;2023-05-21T06:28:16;16.30;99.90
44513;DHT22;30219;50.588;9.504;2023-05-21T06:30:42;16.50;99.90
44513;DHT22;30219;50.588;9.504;2023-05-21T06:33:07;16.70;99.90
44513;DHT22;30219;50.588;9.504;2023-05-21T06:35:33;16.90;99.90
44513;DHT22;30219;50.588;9.504;2023-05-21T06:38:01;17.30;99.90
44513;DHT22;30219;50.588;9.504;2023-05-21T06:40:26;17.60;99.90
44513;DHT22;30219;50.588;9.504;2023-05-21T06:42:52;17.80;99.90
44513;DHT22;30219;50.588;9.504;2023-05-21T06:45:17;18.00;99.90
44513;DHT22;30219;50.588;9.504;2023-05-21T06:47:43;18.00;99.90
44513;DHT22;30219;50.588;9.504;2023-05-21T06:50:08;18.10;99.90
44513;DHT22;30219;50.588;9.504;2023-05-21T06:52:34;18.10;99.90
44513;DHT22;30219;50.588;9.504;2023-05-21T06:54:59;18.10;99.90
44513;DHT22;30219;50.588;9.504;2023-05-21T06:57:25;18.10;99.90
44513;DHT22;30219;50.588;9.504;2023-05-21T06:59:50;18.10;99.90
44513;DHT22;30219;50.588;9.504;2023-05-21T07:02:16;18.20;99.90
44513;DHT22;30219;50.588;9.504;2023-05-21T07:04:41;18.40;99.90
44513;DHT22;30219;50.588;9.504;2023-05-21T07:07:07;18.60;99.90
44513;DHT22;30219;50.588;9.504;2023-05-21T07:09:32;18.80;99.90
44513;DHT22;30219;50.588;9.504;2023-05-21T07:11:58;19.10;99.90
44513;DHT22;30219;50.588;9.504;2023-05-21T07:14:24;19.30;99.90
44513;DHT22;30219;50.588;9.504;2023-05-21T07:16:49;19.70;99.90
44513;DHT22;30219;50.588;9.504;2023-05-21T07:19:15;20.30;99.90
44513;DHT22;30219;50.588;9.504;2023-05-21T07:21:40;21.00;99.90
44513;DHT22;30219;50.588;9.504;2023-05-21T07:24:06;21.70;99.90
44513;DHT22;30219;50.588;9.504;2023-05-21T07:26:31;22.20;99.90
44513;DHT22;30219;50.588;9.504;2023-05-21T07:29:00;22.70;99.90
44513;DHT22;30219;50.588;9.504;2023-05-21T07:31:30;23.00;99.90
44513;DHT22;30219;50.588;9.504;2023-05-21T07:33:55;23.40;99.90
44513;DHT22;30219;50.588;9.504;2023-05-21T07:36:21;23.60;99.90
44513;DHT22;30219;50.588;9.504;2023-05-21T07:38:46;23.90;99.90
44513;DHT22;30219;50.588;9.504;2023-05-21T07:41:12;24.20;99.90
44513;DHT22;30219;50.588;9.504;2023-05-21T07:43:37;24.60;99.90
44513;DHT22;30219;50.588;9.504;2023-05-21T07:46:03;24.80;99.90
44513;DHT22;30219;50.588;9.504;2023-05-21T07:48:28;25.20;99.90
44513;DHT22;30219;50.588;9.504;2023-05-21T07:50:54;25.60;99.90
44513;DHT22;30219;50.588;9.504;2023-05-21T07:53:20;25.80;99.90
44513;DHT22;30219;50.588;9.504;2023-05-21T07:55:46;25.90;99.60
44513;DHT22;30219;50.588;9.504;2023-05-21T07:58:15;26.00;99.90
44513;DHT22;30219;50.588;9.504;2023-05-21T08:00:42;25.90;99.90
44513;DHT22;30219;50.588;9.504;2023-05-21T08:03:09;25.70;99.60
44513;DHT22;30219;50.588;9.504;2023-05-21T08:05:36;25.60;99.90
44513;DHT22;30219;50.588;9.504;2023-05-21T08:08:01;25.40;99.90
44513;DHT22;30219;50.588;9.504;2023-05-21T08:10:27;25.60;99.90
44513;DHT22;30219;50.588;9.504;2023-05-21T08:12:52;25.70;99.90
44513;DHT22;30219;50.588;9.504;2023-05-21T08:15:18;25.70;99.90
44513;DHT22;30219;50.588;9.504;2023-05-21T08:17:43;25.70;99.90
44513;DHT22;30219;50.588;9.504;2023-05-21T08:20:09;25.90;99.90
44513;DHT22;30219;50.588;9.504;2023-05-21T08:22:34;26.20;99.50
44513;DHT22;30219;50.588;9.504;2023-05-21T08:25:00;26.40;99.80
44513;DHT22;30219;50.588;9.504;2023-05-21T08:27:25;26.60;99.60
44513;DHT22;30219;50.588;9.504;2023-05-21T08:29:51;26.70;99.30
44513;DHT22;30219;50.588;9.504;2023-05-21T08:32:16;26.90;99.10
44513;DHT22;30219;50.588;9.504;2023-05-21T08:34:42;27.10;99.30
44513;DHT22;30219;50.588;9.504;2023-05-21T08:37:07;27.20;99.00
44513;DHT22;30219;50.588;9.504;2023-05-21T08:39:33;27.40;98.70
44513;DHT22;30219;50.588;9.504;2023-05-21T08:42:02;27.50;98.10
44513;DHT22;30219;50.588;9.504;2023-05-21T08:44:28;27.70;98.30
44513;DHT22;30219;50.588;9.504;2023-05-21T08:46:56;27.90;97.60
44513;DHT22;30219;50.588;9.504;2023-05-21T08:49:23;28.10;98.00
44513;DHT22;30219;50.588;9.504;2023-05-21T08:51:50;28.30;97.00
44513;DHT22;30219;50.588;9.504;2023-05-21T08:54:16;28.30;96.70
44513;DHT22;30219;50.588;9.504;2023-05-21T08:56:42;28.50;96.80
44513;DHT22;30219;50.588;9.504;2023-05-21T08:59:11;28.70;96.90
44513;DHT22;30219;50.588;9.504;2023-05-21T09:01:37;28.80;96.70
44513;DHT22;30219;50.588;9.504;2023-05-21T09:04:06;29.40;96.00
44513;DHT22;30219;50.588;9.504;2023-05-21T09:06:31;29.70;95.80
44513;DHT22;30219;50.588;9.504;2023-05-21T09:09:13;30.20;95.50
44513;DHT22;30219;50.588;9.504;2023-05-21T09:11:41;30.40;94.70
44513;DHT22;30219;50.588;9.504;2023-05-21T09:14:08;30.30;94.60
44513;DHT22;30219;50.588;9.504;2023-05-21T09:16:34;30.40;94.10
44513;DHT22;30219;50.588;9.504;2023-05-21T09:18:59;30.20;94.20
44513;DHT22;30219;50.588;9.504;2023-05-21T09:21:27;30.10;93.40
44513;DHT22;30219;50.588;9.504;2023-05-21T09:23:56;30.30;94.00
44513;DHT22;30219;50.588;9.504;2023-05-21T09:26:22;30.30;93.80
44513;DHT22;30219;50.588;9.504;2023-05-21T09:28:48;30.30;94.00
44513;DHT22;30219;50.588;9.504;2023-05-21T09:31:14;30.60;93.60
44513;DHT22;30219;50.588;9.504;2023-05-21T09:33:44;30.70;93.20
44513;DHT22;30219;50.588;9.504;2023-05-21T09:36:10;30.80;93.30
44513;DHT22;30219;50.588;9.504;2023-05-21T09:38:35;31.00;93.00
44513;DHT22;30219;50.588;9.504;2023-05-21T09:41:03;30.70;92.80
44513;DHT22;30219;50.588;9.504;2023-05-21T09:43:49;30.30;92.30
44513;DHT22;30219;50.588;9.504;2023-05-21T09:46:42;30.40;93.20
44513;DHT22;30219;50.588;9.504;2023-05-21T09:49:21;30.90;92.70
44513;DHT22;30219;50.588;9.504;2023-05-21T09:51:54;31.40;92.40
44513;DHT22;30219;50.588;9.504;2023-05-21T09:54:22;31.80;92.00
44513;DHT22;30219;50.588;9.504;2023-05-21T09:56:49;31.30;91.10
44513;DHT22;30219;50.588;9.504;2023-05-21T09:59:15;31.10;90.70
44513;DHT22;30219;50.588;9.504;2023-05-21T10:01:41;30.90;91.00
44513;DHT22;30219;50.588;9.504;2023-05-21T10:04:10;29.80;87.10
44513;DHT22;30219;50.588;9.504;2023-05-21T10:06:45;29.00;90.40
44513;DHT22;30219;50.588;9.504;2023-05-21T10:09:13;28.60;90.50
44513;DHT22;30219;50.588;9.504;2023-05-21T10:11:39;28.70;89.80
44513;DHT22;30219;50.588;9.504;2023-05-21T10:14:08;29.10;89.40
44513;DHT22;30219;50.588;9.504;2023-05-21T10:16:37;29.50;89.80
44513;DHT22;30219;50.588;9.504;2023-05-21T10:19:03;28.40;88.20
44513;DHT22;30219;50.588;9.504;2023-05-21T10:21:31;27.80;90.40
44513;DHT22;30219;50.588;9.504;2023-05-21T10:23:57;27.80;90.10
44513;DHT22;30219;50.588;9.504;2023-05-21T10:26:25;27.90;90.30
44513;DHT22;30219;50.588;9.504;2023-05-21T10:28:51;27.40;88.80
44513;DHT22;30219;50.588;9.504;2023-05-21T10:31:16;27.10;88.80
44513;DHT22;30219;50.588;9.504;2023-05-21T10:33:42;27.20;88.60
44513;DHT22;30219;50.588;9.504;2023-05-21T10:36:08;26.90;88.10
44513;DHT22;30219;50.588;9.504;2023-05-21T10:38:34;26.90;90.00
44513;DHT22;30219;50.588;9.504;2023-05-21T10:41:00;26.70;90.30
44513;DHT22;30219;50.588;9.504;2023-05-21T10:51:22;26.50;90.00
44513;DHT22;30219;50.588;9.504;2023-05-21T10:56:21;26.50;91.50
44513;DHT22;30219;50.588;9.504;2023-05-21T11:01:14;26.70;91.10
44513;DHT22;30219;50.588;9.504;2023-05-21T11:03:40;26.40;90.60
44513;DHT22;30219;50.588;9.504;2023-05-21T11:06:05;26.30;90.40
44513;DHT22;30219;50.588;9.504;2023-05-21T11:08:35;26.40;90.80
44513;DHT22;30219;50.588;9.504;2023-05-21T11:11:02;26.40;90.90
44513;DHT22;30219;50.588;9.504;2023-05-21T11:13:28;26.60;90.50
44513;DHT22;30219;50.588;9.504;2023-05-21T11:21:03;26.50;89.90
44513;DHT22;30219;50.588;9.504;2023-05-21T11:26:16;26.20;90.10
44513;DHT22;30219;50.588;9.504;2023-05-21T11:28:41;26.40;90.60
44513;DHT22;30219;50.588;9.504;2023-05-21T11:31:25;26.20;89.90
44513;DHT22;30219;50.588;9.504;2023-05-21T11:36:39;26.50;90.40
44513;DHT22;30219;50.588;9.504;2023-05-21T11:39:08;26.90;89.90
44513;DHT22;30219;50.588;9.504;2023-05-21T11:44:20;27.00;90.30
44513;DHT22;30219;50.588;9.504;2023-05-21T11:46:46;26.90;88.50
44513;DHT22;30219;50.588;9.504;2023-05-21T11:49:13;26.90;90.10
44513;DHT22;30219;50.588;9.504;2023-05-21T11:51:40;27.10;89.20
44513;DHT22;30219;50.588;9.504;2023-05-21T11:54:14;27.30;87.60
44513;DHT22;30219;50.588;9.504;2023-05-21T11:56:42;26.80;84.50
44513;DHT22;30219;50.588;9.504;2023-05-21T11:59:12;26.40;86.60
44513;DHT22;30219;50.588;9.504;2023-05-21T12:01:38;26.00;86.40
44513;DHT22;30219;50.588;9.504;2023-05-21T12:04:03;26.00;87.30
44513;DHT22;30219;50.588;9.504;2023-05-21T12:06:29;26.00;87.90
44513;DHT22;30219;50.588;9.504;2023-05-21T12:08:55;26.00;88.10
44513;DHT22;30219;50.588;9.504;2023-05-21T12:11:25;25.80;88.10
44513;DHT22;30219;50.588;9.504;2023-05-21T12:13:54;25.70;85.90
44513;DHT22;30219;50.588;9.504;2023-05-21T12:16:20;25.40;87.40
44513;DHT22;30219;50.588;9.504;2023-05-21T12:18:46;25.40;88.00
44513;DHT22;30219;50.588;9.504;2023-05-21T12:21:12;25.30;88.00
44513;DHT22;30219;50.588;9.504;2023-05-21T12:23:37;25.50;89.50
44513;DHT22;30219;50.588;9.504;2023-05-21T12:26:03;25.70;88.10
44513;DHT22;30219;50.588;9.504;2023-05-21T12:28:28;25.90;88.80
44513;DHT22;30219;50.588;9.504;2023-05-21T12:30:54;26.00;86.80
44513;DHT22;30219;50.588;9.504;2023-05-21T12:33:20;26.00;87.40
44513;DHT22;30219;50.588;9.504;2023-05-21T12:35:46;26.00;88.20
44513;DHT22;30219;50.588;9.504;2023-05-21T12:38:14;25.90;88.30
44513;DHT22;30219;50.588;9.504;2023-05-21T12:40:39;26.00;88.20
44513;DHT22;30219;50.588;9.504;2023-05-21T12:43:05;26.00;88.30
44513;DHT22;30219;50.588;9.504;2023-05-21T12:45:31;26.00;87.70
44513;DHT22;30219;50.588;9.504;2023-05-21T12:48:00;25.70;87.50
44513;DHT22;30219;50.588;9.504;2023-05-21T12:50:25;25.70;87.20
44513;DHT22;30219;50.588;9.504;2023-05-21T12:52:54;25.50;85.00
44513;DHT22;30219;50.588;9.504;2023-05-21T12:55:23;25.40;85.20
44513;DHT22;30219;50.588;9.504;2023-05-21T12:58:05;25.30;85.90
44513;DHT22;30219;50.588;9.504;2023-05-21T13:00:32;25.50;86.20
44513;DHT22;30219;50.588;9.504;2023-05-21T13:02:58;25.70;84.90
44513;DHT22;30219;50.588;9.504;2023-05-21T13:05:25;25.80;84.10
44513;DHT22;30219;50.588;9.504;2023-05-21T13:07:50;25.80;84.70
44513;DHT22;30219;50.588;9.504;2023-05-21T13:10:16;25.80;84.50
44513;DHT22;30219;50.588;9.504;2023-05-21T13:12:42;25.90;84.40
44513;DHT22;30219;50.588;9.504;2023-05-21T13:15:07;25.90;84.60
44513;DHT22;30219;50.588;9.504;2023-05-21T13:17:33;26.20;86.40
44513;DHT22;30219;50.588;9.504;2023-05-21T13:22:33;26.70;84.80
44513;DHT22;30219;50.588;9.504;2023-05-21T13:25:00;27.00;85.50
44513;DHT22;30219;50.588;9.504;2023-05-21T13:27:26;26.90;84.60
44513;DHT22;30219;50.588;9.504;2023-05-21T13:29:51;26.90;83.50
44513;DHT22;30219;50.588;9.504;2023-05-21T13:32:17;26.90;83.00
44513;DHT22;30219;50.588;9.504;2023-05-21T13:34:43;26.60;84.30
44513;DHT22;30219;50.588;9.504;2023-05-21T13:37:08;26.60;84.10
44513;DHT22;30219;50.588;9.504;2023-05-21T13:39:34;26.70;85.20
44513;DHT22;30219;50.588;9.504;2023-05-21T13:41:59;26.70;85.40
44513;DHT22;30219;50.588;9.504;2023-05-21T13:44:25;26.80;85.70
44513;DHT22;30219;50.588;9.504;2023-05-21T13:46:51;26.90;83.80
44513;DHT22;30219;50.588;9.504;2023-05-21T13:49:16;26.90;83.90
44513;DHT22;30219;50.588;9.504;2023-05-21T13:51:42;26.90;83.40
44513;DHT22;30219;50.588;9.504;2023-05-21T13:54:07;26.90;85.20
44513;DHT22;30219;50.588;9.504;2023-05-21T13:56:33;26.80;82.20
44513;DHT22;30219;50.588;9.504;2023-05-21T13:58:58;26.60;82.30
44513;DHT22;30219;50.588;9.504;2023-05-21T14:01:24;26.50;83.60
44513;DHT22;30219;50.588;9.504;2023-05-21T14:03:49;26.50;84.40
44513;DHT22;30219;50.588;9.504;2023-05-21T14:06:15;26.50;84.20
44513;DHT22;30219;50.588;9.504;2023-05-21T14:08:40;26.50;84.00
44513;DHT22;30219;50.588;9.504;2023-05-21T14:11:06;26.50;83.30
44513;DHT22;30219;50.588;9.504;2023-05-21T14:13:31;26.30;83.20
44513;DHT22;30219;50.588;9.504;2023-05-21T14:15:57;26.30;83.80
44513;DHT22;30219;50.588;9.504;2023-05-21T14:18:22;26.10;83.00
44513;DHT22;30219;50.588;9.504;2023-05-21T14:20:48;26.00;83.00
44513;DHT22;30219;50.588;9.504;2023-05-21T14:23:13;26.10;84.10
44513;DHT22;30219;50.588;9.504;2023-05-21T14:25:40;26.10;83.80
44513;DHT22;30219;50.588;9.504;2023-05-21T14:28:05;26.10;83.90
44513;DHT22;30219;50.588;9.504;2023-05-21T14:30:31;26.10;83.70
44513;DHT22;30219;50.588;9.504;2023-05-21T14:32:56;26.20;84.10
44513;DHT22;30219;50.588;9.504;2023-05-21T14:35:22;26.30;84.70
44513;DHT22;30219;50.588;9.504;2023-05-21T14:37:47;26.60;84.10
44513;DHT22;30219;50.588;9.504;2023-05-21T14:40:13;26.80;83.90
44513;DHT22;30219;50.588;9.504;2023-05-21T14:42:38;26.80;84.80
44513;DHT22;30219;50.588;9.504;2023-05-21T14:45:04;26.80;82.90
44513;DHT22;30219;50.588;9.504;2023-05-21T14:47:30;26.80;82.00
44513;DHT22;30219;50.588;9.504;2023-05-21T14:49:55;26.80;84.00
44513;DHT22;30219;50.588;9.504;2023-05-21T14:52:21;26.80;83.40
44513;DHT22;30219;50.588;9.504;2023-05-21T14:54:46;26.70;83.10
44513;DHT22;30219;50.588;9.504;2023-05-21T14:57:12;26.70;83.20
44513;DHT22;30219;50.588;9.504;2023-05-21T14:59:37;26.70;83.20
44513;DHT22;30219;50.588;9.504;2023-05-21T15:02:03;26.70;83.10
44513;DHT22;30219;50.588;9.504;2023-05-21T15:04:28;26.70;84.40
44513;DHT22;30219;50.588;9.504;2023-05-21T15:06:54;26.60;83.40
44513;DHT22;30219;50.588;9.504;2023-05-21T15:09:20;26.40;81.90
44513;DHT22;30219;50.588;9.504;2023-05-21T15:11:45;26.10;82.90
44513;DHT22;30219;50.588;9.504;2023-05-21T15:14:11;26.20;84.00
44513;DHT22;30219;50.588;9.504;2023-05-21T15:16:36;26.40;85.60
44513;DHT22;30219;50.588;9.504;2023-05-21T15:19:02;26.50;84.20
44513;DHT22;30219;50.588;9.504;2023-05-21T15:21:28;26.50;84.70
44513;DHT22;30219;50.588;9.504;2023-05-21T15:23:53;26.50;84.80
44513;DHT22;30219;50.588;9.504;2023-05-21T15:26:19;26.40;82.50
44513;DHT22;30219;50.588;9.504;2023-05-21T15:28:45;26.40;82.20
44513;DHT22;30219;50.588;9.504;2023-05-21T15:31:11;26.40;83.10
44513;DHT22;30219;50.588;9.504;2023-05-21T15:33:36;26.50;81.60
44513;DHT22;30219;50.588;9.504;2023-05-21T15:36:02;26.60;82.20
44513;DHT22;30219;50.588;9.504;2023-05-21T15:38:27;26.80;82.30
44513;DHT22;30219;50.588;9.504;2023-05-21T15:40:53;26.90;82.70
44513;DHT22;30219;50.588;9.504;2023-05-21T15:43:18;27.00;81.90
44513;DHT22;30219;50.588;9.504;2023-05-21T15:45:44;27.10;81.00
44513;DHT22;30219;50.588;9.504;2023-05-21T15:48:09;27.20;82.60
44513;DHT22;30219;50.588;9.504;2023-05-21T15:50:36;27.30;82.00
44513;DHT22;30219;50.588;9.504;2023-05-21T15:53:02;27.30;81.00
44513;DHT22;30219;50.588;9.504;2023-05-21T15:55:30;27.10;81.20
44513;DHT22;30219;50.588;9.504;2023-05-21T15:57:56;26.90;83.10